Time;durP1;ratioP1;P1;durP2;ratioP2;P2;SDS_P1;SDS_P2;PMS_P1;PMS_P2;Temp;Humidity;BMP_temperature;BMP_pressure;BME280_temperature;BME280_humidity;BME280_pressure;Samples;Min_cycle;Max_cycle;Signal;HPM_P1;HPM_P2
2022/03/03 00:01:14;;;;;;;117.55;23.23;;;;;;;;;;5095765;28;20217;-62
2022/03/03 00:03:40;;;;;;;85.63;17.85;;;;;;;;;;5095901;28;20188;-62
2022/03/03 00:06:05;;;;;;;113.10;18.13;;;;;;;;;;5095628;28;20496;-63
2022/03/03 00:08:31;;;;;;;114.00;18.00;;;;;;;;;;5096130;28;20168;-63
2022/03/03 00:10:57;;;;;;;166.00;20.45;;;;;;;;;;5096047;28;20163;-63
2022/03/03 00:13:23;;;;;;;78.75;17.65;;;;;;;;;;5094735;28;20171;-63
2022/03/03 00:15:49;;;;;;;107.88;18.02;;;;;;;;;;5095683;28;20186;-63
2022/03/03 00:18:15;;;;;;;107.68;17.83;;;;;;;;;;5095863;28;20163;-63
2022/03/03 00:20:41;;;;;;;85.78;16.65;;;;;;;;;;5095678;28;20175;-63
2022/03/03 00:23:07;;;;;;;113.63;17.17;;;;;;;;;;5096001;28;20168;-63
2022/03/03 00:25:33;;;;;;;78.57;15.93;;;;;;;;;;5096361;28;20213;-64
2022/03/03 00:28:02;;;;;;;87.00;16.20;;;;;;;;;;5095879;28;20163;-63
2022/03/03 00:30:28;;;;;;;90.15;15.57;;;;;;;;;;5099854;28;20183;-63
2022/03/03 00:32:54;;;;;;;91.88;17.48;;;;;;;;;;5099404;28;20271;-63
2022/03/03 00:35:20;;;;;;;124.72;16.83;;;;;;;;;;5099331;28;20595;-63
2022/03/03 00:37:46;;;;;;;104.38;15.20;;;;;;;;;;5099344;28;20184;-63
2022/03/03 00:40:12;;;;;;;84.97;15.05;;;;;;;;;;5098920;28;20559;-64
2022/03/03 00:42:38;;;;;;;132.82;16.90;;;;;;;;;;5103478;28;20171;-63
2022/03/03 00:45:05;;;;;;;123.95;14.40;;;;;;;;;;5100250;28;20183;-63
2022/03/03 00:47:30;;;;;;;123.30;13.68;;;;;;;;;;5096373;28;20159;-62
2022/03/03 00:49:56;;;;;;;115.80;13.43;;;;;;;;;;5095537;28;20165;-63
2022/03/03 00:52:22;;;;;;;146.32;15.13;;;;;;;;;;5095801;28;20656;-63
2022/03/03 00:54:48;;;;;;;100.80;14.00;;;;;;;;;;5096840;28;20167;-62
2022/03/03 00:57:14;;;;;;;123.38;13.48;;;;;;;;;;5100062;28;20179;-63
2022/03/03 00:59:40;;;;;;;87.07;12.10;;;;;;;;;;5103989;28;20190;-63
2022/03/03 01:02:06;;;;;;;94.38;12.93;;;;;;;;;;5107752;28;20156;-63
2022/03/03 01:04:32;;;;;;;112.90;11.95;;;;;;;;;;5108994;28;20210;-63
2022/03/03 01:06:58;;;;;;;90.07;11.07;;;;;;;;;;5108343;28;20167;-63
2022/03/03 01:09:24;;;;;;;76.55;11.05;;;;;;;;;;5106990;28;20171;-63
2022/03/03 01:11:50;;;;;;;77.82;10.93;;;;;;;;;;5104739;28;20216;-63
2022/03/03 01:14:21;;;;;;;97.20;11.45;;;;;;;;;;5103050;28;20178;-63
2022/03/03 01:16:47;;;;;;;94.03;11.88;;;;;;;;;;5108717;28;20166;-63
2022/03/03 01:19:13;;;;;;;104.03;12.05;;;;;;;;;;5108705;28;20205;-63
2022/03/03 01:21:39;;;;;;;93.05;11.10;;;;;;;;;;5110036;28;20163;-63
2022/03/03 01:24:05;;;;;;;96.47;11.10;;;;;;;;;;5112242;28;20195;-64
2022/03/03 01:26:31;;;;;;;127.50;12.02;;;;;;;;;;5112261;28;20164;-63
2022/03/03 01:28:57;;;;;;;90.03;11.82;;;;;;;;;;5110747;28;20783;-63
2022/03/03 01:31:23;;;;;;;50.05;9.43;;;;;;;;;;5107558;28;20650;-63
2022/03/03 01:33:48;;;;;;;75.30;11.18;;;;;;;;;;5104357;28;20168;-64
2022/03/03 01:36:14;;;;;;;54.35;10.60;;;;;;;;;;5105324;28;20164;-64
2022/03/03 01:38:40;;;;;;;55.40;11.30;;;;;;;;;;5099774;28;20177;-63
2022/03/03 01:41:07;;;;;;;47.72;12.25;;;;;;;;;;5097222;28;20174;-63
2022/03/03 01:43:33;;;;;;;66.63;12.48;;;;;;;;;;5096715;28;20160;-63
2022/03/03 01:45:59;;;;;;;43.47;10.50;;;;;;;;;;5097159;28;20237;-63
2022/03/03 01:48:25;;;;;;;63.45;10.35;;;;;;;;;;5096282;28;20242;-63
2022/03/03 01:50:52;;;;;;;72.38;10.73;;;;;;;;;;5094265;28;20202;-63
2022/03/03 01:53:18;;;;;;;47.25;9.57;;;;;;;;;;5094008;28;20160;-62
2022/03/03 01:55:44;;;;;;;47.92;8.52;;;;;;;;;;5093841;28;20182;-63
2022/03/03 01:58:10;;;;;;;34.25;7.80;;;;;;;;;;5093910;28;20250;-64
2022/03/03 02:00:36;;;;;;;82.28;10.20;;;;;;;;;;5093727;28;20194;-63
2022/03/03 02:03:02;;;;;;;41.08;7.50;;;;;;;;;;5093532;28;20207;-63
2022/03/03 02:05:29;;;;;;;67.28;8.85;;;;;;;;;;5093737;28;20199;-63
2022/03/03 02:07:54;;;;;;;49.55;7.78;;;;;;;;;;5093837;28;20268;-63
2022/03/03 02:10:20;;;;;;;30.33;6.82;;;;;;;;;;5093535;28;20563;-63
2022/03/03 02:12:46;;;;;;;41.08;7.45;;;;;;;;;;5093723;28;20164;-63
2022/03/03 02:15:17;;;;;;;22.60;5.88;;;;;;;;;;5093491;28;20171;-63
2022/03/03 02:17:43;;;;;;;26.48;7.90;;;;;;;;;;5093735;28;20175;-63
2022/03/03 02:20:19;;;;;;;39.05;7.13;;;;;;;;;;5093530;28;20166;-63
2022/03/03 02:22:45;;;;;;;49.72;7.70;;;;;;;;;;5094093;28;20160;-62
2022/03/03 02:25:11;;;;;;;39.55;7.70;;;;;;;;;;5093513;28;20187;-63
2022/03/03 02:27:37;;;;;;;53.38;7.50;;;;;;;;;;5093618;28;20174;-63
2022/03/03 02:30:03;;;;;;;36.63;7.65;;;;;;;;;;5093716;28;20186;-64
2022/03/03 02:32:29;;;;;;;50.40;7.68;;;;;;;;;;5095935;28;20164;-64
2022/03/03 02:34:55;;;;;;;59.90;9.23;;;;;;;;;;5099013;28;20190;-63
2022/03/03 02:37:21;;;;;;;43.55;7.60;;;;;;;;;;5095363;28;20175;-62
2022/03/03 02:39:47;;;;;;;44.88;7.43;;;;;;;;;;5097124;28;20175;-64
2022/03/03 02:42:13;;;;;;;26.50;6.95;;;;;;;;;;5097222;28;20160;-63
2022/03/03 02:44:39;;;;;;;61.00;8.25;;;;;;;;;;5097283;28;20261;-64
2022/03/03 02:47:05;;;;;;;52.10;8.68;;;;;;;;;;5097218;28;20264;-63
2022/03/03 02:49:31;;;;;;;52.30;8.13;;;;;;;;;;5096945;28;20227;-63
2022/03/03 02:51:57;;;;;;;56.03;8.48;;;;;;;;;;5097030;28;20163;-63
2022/03/03 02:54:23;;;;;;;48.97;7.85;;;;;;;;;;5096862;28;20262;-63
2022/03/03 02:59:34;;;;;;;22.50;7.20;;;;;;;;;;5096682;28;20163;-63
2022/03/03 03:01:59;;;;;;;15.57;5.53;;;;;;;;;;5096895;28;20159;-63
2022/03/03 03:04:25;;;;;;;12.88;5.78;;;;;;;;;;5096784;28;20244;-62
2022/03/03 03:06:51;;;;;;;30.83;6.40;;;;;;;;;;5097098;28;20191;-63
2022/03/03 03:09:17;;;;;;;23.95;6.70;;;;;;;;;;5096832;28;20563;-63
2022/03/03 03:11:43;;;;;;;35.80;7.03;;;;;;;;;;5096801;28;20266;-65
2022/03/03 03:14:09;;;;;;;36.53;7.22;;;;;;;;;;5096820;28;20164;-63
2022/03/03 03:16:35;;;;;;;14.80;5.95;;;;;;;;;;5096618;28;20236;-63
2022/03/03 03:19:01;;;;;;;27.15;6.63;;;;;;;;;;5096465;28;20170;-63
2022/03/03 03:21:27;;;;;;;20.45;6.50;;;;;;;;;;5096397;28;20495;-62
2022/03/03 03:23:53;;;;;;;16.92;6.70;;;;;;;;;;5096274;28;20187;-63
2022/03/03 03:26:19;;;;;;;15.05;6.32;;;;;;;;;;5096575;28;20170;-64
2022/03/03 03:28:45;;;;;;;12.35;5.55;;;;;;;;;;5096517;28;20178;-63
2022/03/03 03:31:11;;;;;;;13.60;6.20;;;;;;;;;;5096351;28;20179;-62
2022/03/03 03:33:36;;;;;;;15.13;6.13;;;;;;;;;;5096359;28;20171;-64
2022/03/03 03:36:02;;;;;;;27.70;7.60;;;;;;;;;;5096023;28;20462;-64
2022/03/03 03:38:29;;;;;;;17.33;6.95;;;;;;;;;;5096061;28;20167;-63
2022/03/03 03:40:55;;;;;;;16.27;5.57;;;;;;;;;;5096146;28;20167;-64
2022/03/03 03:43:21;;;;;;;18.92;6.55;;;;;;;;;;5096206;28;20224;-63
2022/03/03 03:45:47;;;;;;;34.35;8.48;;;;;;;;;;5095885;28;20191;-63
2022/03/03 03:48:13;;;;;;;18.25;8.00;;;;;;;;;;5095901;28;20176;-63
2022/03/03 03:50:39;;;;;;;44.90;7.63;;;;;;;;;;5095724;28;20656;-62
2022/03/03 03:53:04;;;;;;;34.53;8.02;;;;;;;;;;5096005;28;20224;-63
2022/03/03 03:55:30;;;;;;;19.55;6.82;;;;;;;;;;5095942;28;20194;-62
2022/03/03 03:57:57;;;;;;;23.67;7.63;;;;;;;;;;5096196;28;20203;-63
2022/03/03 04:00:23;;;;;;;14.32;6.20;;;;;;;;;;5095767;28;20194;-63
2022/03/03 04:02:49;;;;;;;42.75;9.40;;;;;;;;;;5095888;28;20259;-63
2022/03/03 04:05:15;;;;;;;43.53;8.70;;;;;;;;;;5096335;28;20198;-63
2022/03/03 04:07:41;;;;;;;28.52;7.97;;;;;;;;;;5096021;28;20190;-63
2022/03/03 04:10:08;;;;;;;32.17;8.90;;;;;;;;;;5095709;28;20160;-63
2022/03/03 04:12:33;;;;;;;26.08;8.45;;;;;;;;;;5095929;28;20175;-63
2022/03/03 04:14:59;;;;;;;54.03;9.82;;;;;;;;;;5095766;28;20163;-63
2022/03/03 04:17:25;;;;;;;46.70;10.70;;;;;;;;;;5095928;28;20506;-62
2022/03/03 04:19:51;;;;;;;63.38;10.55;;;;;;;;;;5096063;28;20168;-62
2022/03/03 04:22:17;;;;;;;65.60;12.13;;;;;;;;;;5095976;28;20167;-63
2022/03/03 04:24:43;;;;;;;48.45;9.63;;;;;;;;;;5095949;28;20185;-62
2022/03/03 04:27:09;;;;;;;29.95;9.63;;;;;;;;;;5095989;28;20159;-62
2022/03/03 04:29:35;;;;;;;59.38;11.15;;;;;;;;;;5095625;28;20627;-63
2022/03/03 04:32:01;;;;;;;42.60;9.52;;;;;;;;;;5095967;28;20171;-63
2022/03/03 04:34:27;;;;;;;68.05;10.98;;;;;;;;;;5096198;28;20182;-62
2022/03/03 04:36:54;;;;;;;35.28;8.05;;;;;;;;;;5094906;28;20167;-63
2022/03/03 04:39:20;;;;;;;49.38;8.13;;;;;;;;;;5095283;28;20163;-62
2022/03/03 04:41:45;;;;;;;37.25;9.23;;;;;;;;;;5093852;28;20172;-62
2022/03/03 04:44:11;;;;;;;34.95;10.68;;;;;;;;;;5095089;28;20187;-61
2022/03/03 04:46:37;;;;;;;36.17;11.68;;;;;;;;;;5094775;28;20181;-62
2022/03/03 04:49:03;;;;;;;37.28;11.82;;;;;;;;;;5094684;28;20178;-63
2022/03/03 04:51:30;;;;;;;38.90;12.77;;;;;;;;;;5094340;28;20183;-63
2022/03/03 04:53:56;;;;;;;39.88;10.15;;;;;;;;;;5094631;28;20178;-64
2022/03/03 04:56:22;;;;;;;26.38;9.77;;;;;;;;;;5094615;28;20167;-63
2022/03/03 04:58:49;;;;;;;54.72;11.10;;;;;;;;;;5094640;28;20309;-63
2022/03/03 05:01:16;;;;;;;48.40;10.55;;;;;;;;;;5094187;28;20272;-63
2022/03/03 05:03:42;;;;;;;38.92;10.65;;;;;;;;;;5094307;28;20170;-63
2022/03/03 05:06:08;;;;;;;51.47;11.10;;;;;;;;;;5094327;28;20156;-63
2022/03/03 05:08:33;;;;;;;43.63;10.80;;;;;;;;;;5094483;28;20500;-63
2022/03/03 05:10:59;;;;;;;46.13;10.73;;;;;;;;;;5094357;28;20163;-64
2022/03/03 05:13:26;;;;;;;44.53;9.85;;;;;;;;;;5094308;28;20178;-63
2022/03/03 05:15:52;;;;;;;53.40;10.82;;;;;;;;;;5094433;28;20265;-63
2022/03/03 05:18:18;;;;;;;35.85;9.93;;;;;;;;;;5094293;28;20260;-63
2022/03/03 05:20:44;;;;;;;34.47;10.35;;;;;;;;;;5094116;28;20262;-63
2022/03/03 05:23:10;;;;;;;36.55;10.60;;;;;;;;;;5094172;28;20182;-64
2022/03/03 05:25:36;;;;;;;46.45;11.18;;;;;;;;;;5094253;28;20195;-63
2022/03/03 05:28:02;;;;;;;59.65;10.77;;;;;;;;;;5093923;28;20170;-62
2022/03/03 05:30:28;;;;;;;44.47;11.65;;;;;;;;;;5094420;28;20174;-62
2022/03/03 05:32:54;;;;;;;37.92;10.80;;;;;;;;;;5094463;28;20160;-63
2022/03/03 05:35:21;;;;;;;47.60;11.45;;;;;;;;;;5094283;28;20590;-63
2022/03/03 05:37:47;;;;;;;47.38;11.63;;;;;;;;;;5094138;28;20239;-62
2022/03/03 05:40:13;;;;;;;35.13;11.43;;;;;;;;;;5093956;28;20598;-62
2022/03/03 05:42:39;;;;;;;33.70;11.98;;;;;;;;;;5093878;28;20160;-63
2022/03/03 05:45:05;;;;;;;34.90;10.77;;;;;;;;;;5093868;28;20241;-63
2022/03/03 05:47:32;;;;;;;28.35;10.60;;;;;;;;;;5094193;28;20519;-63
2022/03/03 05:49:59;;;;;;;30.95;11.85;;;;;;;;;;5093881;28;20160;-63
2022/03/03 05:52:25;;;;;;;25.08;11.82;;;;;;;;;;5094400;28;20171;-63
2022/03/03 05:54:51;;;;;;;30.98;13.48;;;;;;;;;;5094044;28;20195;-63
2022/03/03 05:57:18;;;;;;;28.92;12.43;;;;;;;;;;5094060;28;20202;-62
2022/03/03 05:59:44;;;;;;;39.70;14.80;;;;;;;;;;5093822;28;20171;-63
2022/03/03 06:02:10;;;;;;;28.40;12.75;;;;;;;;;;5093650;28;20164;-64
2022/03/03 06:04:39;;;;;;;30.98;13.50;;;;;;;;;;5093651;28;20202;-62
2022/03/03 06:07:09;;;;;;;24.00;11.43;;;;;;;;;;5093871;28;20160;-62
2022/03/03 06:09:36;;;;;;;20.92;11.07;;;;;;;;;;5093821;28;20170;-63
2022/03/03 06:12:06;;;;;;;31.92;13.10;;;;;;;;;;5095170;28;20494;-62
2022/03/03 06:14:40;;;;;;;32.67;13.93;;;;;;;;;;5098024;28;20175;-63
2022/03/03 06:17:07;;;;;;;29.55;14.10;;;;;;;;;;5098033;28;20171;-64
2022/03/03 06:19:39;;;;;;;33.70;14.40;;;;;;;;;;5098000;28;20560;-64
2022/03/03 06:22:05;;;;;;;35.30;15.73;;;;;;;;;;5098487;28;20459;-63
2022/03/03 06:24:31;;;;;;;25.58;11.75;;;;;;;;;;5097721;28;20255;-63
2022/03/03 06:26:57;;;;;;;27.33;13.40;;;;;;;;;;5097970;28;20168;-64
2022/03/03 06:29:23;;;;;;;24.63;12.00;;;;;;;;;;5098059;28;20254;-63
2022/03/03 06:31:48;;;;;;;19.75;9.98;;;;;;;;;;5097945;28;20160;-63
2022/03/03 06:34:14;;;;;;;20.40;9.88;;;;;;;;;;5097769;28;20543;-62
2022/03/03 06:36:40;;;;;;;21.77;9.70;;;;;;;;;;5096478;28;20233;-63
2022/03/03 06:39:06;;;;;;;19.15;9.80;;;;;;;;;;5097386;28;20175;-64
2022/03/03 06:41:32;;;;;;;19.88;10.98;;;;;;;;;;5097590;28;20233;-64
2022/03/03 06:43:58;;;;;;;19.42;10.07;;;;;;;;;;5097303;28;20683;-63
2022/03/03 06:46:24;;;;;;;19.05;10.50;;;;;;;;;;5098063;28;20156;-63
2022/03/03 06:48:50;;;;;;;21.33;10.80;;;;;;;;;;5097415;28;20164;-62
2022/03/03 06:51:17;;;;;;;20.65;10.63;;;;;;;;;;5097093;28;20175;-63
2022/03/03 06:53:44;;;;;;;21.23;10.77;;;;;;;;;;5097186;28;20495;-62
2022/03/03 06:56:11;;;;;;;20.77;11.00;;;;;;;;;;5097092;28;20195;-63
2022/03/03 06:58:37;;;;;;;24.10;10.98;;;;;;;;;;5097385;28;20162;-64
2022/03/03 07:01:07;;;;;;;21.38;11.07;;;;;;;;;;5097217;28;20227;-63
2022/03/03 07:03:34;;;;;;;20.80;10.68;;;;;;;;;;5097082;28;20159;-63
2022/03/03 07:06:00;;;;;;;19.73;10.10;;;;;;;;;;5096706;28;20626;-62
2022/03/03 07:08:27;;;;;;;20.40;10.35;;;;;;;;;;5097372;28;20175;-64
2022/03/03 07:10:53;;;;;;;22.90;12.32;;;;;;;;;;5097717;28;20168;-64
2022/03/03 07:13:19;;;;;;;21.92;10.45;;;;;;;;;;5096862;28;20190;-64
2022/03/03 07:15:49;;;;;;;23.77;10.60;;;;;;;;;;5096867;28;20203;-64
2022/03/03 07:18:24;;;;;;;24.02;10.15;;;;;;;;;;5096532;28;20614;-63
2022/03/03 07:20:56;;;;;;;17.52;9.20;;;;;;;;;;5096604;28;20167;-63
2022/03/03 07:23:32;;;;;;;17.98;8.55;;;;;;;;;;5095866;28;20180;-63
2022/03/03 07:25:59;;;;;;;19.27;8.10;;;;;;;;;;5096715;28;20167;-63
2022/03/03 07:28:27;;;;;;;18.75;7.57;;;;;;;;;;5096967;28;20163;-65
2022/03/03 07:30:53;;;;;;;13.95;7.97;;;;;;;;;;5096382;28;20199;-62
2022/03/03 07:33:21;;;;;;;18.55;8.02;;;;;;;;;;5096452;28;20175;-63
2022/03/03 07:35:50;;;;;;;17.67;8.57;;;;;;;;;;5096170;28;20250;-64
2022/03/03 07:38:19;;;;;;;19.17;8.32;;;;;;;;;;5096586;28;20163;-63
2022/03/03 07:40:47;;;;;;;22.30;7.57;;;;;;;;;;5096481;28;20210;-64
2022/03/03 07:43:14;;;;;;;23.50;8.73;;;;;;;;;;5096262;28;20519;-64
2022/03/03 07:45:40;;;;;;;17.30;7.85;;;;;;;;;;5096117;28;20198;-64
2022/03/03 07:48:06;;;;;;;19.15;9.77;;;;;;;;;;5096332;28;20163;-64
2022/03/03 07:50:39;;;;;;;16.08;8.18;;;;;;;;;;5097170;28;20313;-64
2022/03/03 07:53:06;;;;;;;17.55;7.75;;;;;;;;;;5096228;28;20148;-63
2022/03/03 07:55:33;;;;;;;17.58;9.15;;;;;;;;;;5095835;28;20625;-64
2022/03/03 07:58:03;;;;;;;17.73;8.85;;;;;;;;;;5095874;28;20611;-64
2022/03/03 08:00:30;;;;;;;14.07;8.23;;;;;;;;;;5095885;28;20183;-64
2022/03/03 08:02:59;;;;;;;20.15;8.45;;;;;;;;;;5096018;28;20167;-64
2022/03/03 08:05:25;;;;;;;23.73;9.63;;;;;;;;;;5095928;28;20271;-64
2022/03/03 08:07:54;;;;;;;17.67;9.60;;;;;;;;;;5095823;28;20164;-64
2022/03/03 08:10:20;;;;;;;22.00;10.45;;;;;;;;;;5095783;28;20595;-64
2022/03/03 08:12:47;;;;;;;21.75;11.10;;;;;;;;;;5095670;28;20242;-64
2022/03/03 08:15:13;;;;;;;18.15;9.43;;;;;;;;;;5095761;28;20181;-62
2022/03/03 08:17:40;;;;;;;12.20;7.13;;;;;;;;;;5095680;28;20658;-63
2022/03/03 08:20:08;;;;;;;9.57;4.63;;;;;;;;;;5095654;28;20168;-63
2022/03/03 08:22:34;;;;;;;6.82;3.95;;;;;;;;;;5095442;28;20175;-62
2022/03/03 08:25:01;;;;;;;7.32;4.40;;;;;;;;;;5095322;28;20556;-63
2022/03/03 08:27:27;;;;;;;8.73;4.78;;;;;;;;;;5095825;28;20164;-63
2022/03/03 08:29:54;;;;;;;9.20;4.88;;;;;;;;;;5095271;28;20210;-62
2022/03/03 08:32:22;;;;;;;8.80;5.20;;;;;;;;;;5095327;28;20163;-62
2022/03/03 08:34:55;;;;;;;10.15;5.40;;;;;;;;;;5094197;28;20163;-62
2022/03/03 08:37:28;;;;;;;7.63;4.97;;;;;;;;;;5095311;28;20170;-59
2022/03/03 08:39:55;;;;;;;8.48;4.95;;;;;;;;;;5095163;28;20166;-61
2022/03/03 08:42:26;;;;;;;7.80;5.07;;;;;;;;;;5095085;28;20250;-60
2022/03/03 08:44:53;;;;;;;8.00;4.65;;;;;;;;;;5094649;28;20627;-60
2022/03/03 08:47:20;;;;;;;7.18;4.78;;;;;;;;;;5095054;28;20163;-59
2022/03/03 08:49:49;;;;;;;11.43;5.70;;;;;;;;;;5094741;28;20208;-59
2022/03/03 08:52:16;;;;;;;7.65;4.80;;;;;;;;;;5094673;28;20166;-59
2022/03/03 08:54:42;;;;;;;6.82;4.28;;;;;;;;;;5093653;28;20491;-60
2022/03/03 08:57:08;;;;;;;4.18;3.40;;;;;;;;;;5094848;28;20173;-59
2022/03/03 08:59:34;;;;;;;7.05;3.42;;;;;;;;;;5094454;28;20170;-60
2022/03/03 09:02:00;;;;;;;7.55;4.55;;;;;;;;;;5093704;28;20249;-59
2022/03/03 09:04:26;;;;;;;13.60;6.50;;;;;;;;;;5094686;28;20207;-59
2022/03/03 09:06:52;;;;;;;12.82;6.53;;;;;;;;;;5094536;28;20168;-60
2022/03/03 09:09:18;;;;;;;10.15;6.00;;;;;;;;;;5094320;28;20216;-61
2022/03/03 09:11:44;;;;;;;10.57;5.75;;;;;;;;;;5094508;28;20198;-59
2022/03/03 09:14:11;;;;;;;8.95;5.72;;;;;;;;;;5094374;28;20228;-61
2022/03/03 09:16:37;;;;;;;10.38;5.28;;;;;;;;;;5094405;28;20163;-60
2022/03/03 09:19:03;;;;;;;9.07;5.43;;;;;;;;;;5094284;28;20178;-60
2022/03/03 09:21:29;;;;;;;8.35;4.75;;;;;;;;;;5094222;28;20171;-61
2022/03/03 09:23:55;;;;;;;9.68;5.05;;;;;;;;;;5094510;28;20170;-61
2022/03/03 09:26:21;;;;;;;7.45;4.47;;;;;;;;;;5094587;28;20493;-60
2022/03/03 09:28:47;;;;;;;6.85;4.05;;;;;;;;;;5094183;28;20217;-61
2022/03/03 09:31:13;;;;;;;8.23;5.13;;;;;;;;;;5094036;28;20182;-61
2022/03/03 09:33:39;;;;;;;10.25;5.35;;;;;;;;;;5093924;28;20163;-61
2022/03/03 09:36:05;;;;;;;8.48;5.78;;;;;;;;;;5094501;28;20163;-61
2022/03/03 09:38:31;;;;;;;9.95;5.88;;;;;;;;;;5094430;28;20164;-61
2022/03/03 09:40:57;;;;;;;13.05;6.13;;;;;;;;;;5094235;28;20174;-61
2022/03/03 09:43:23;;;;;;;11.75;7.05;;;;;;;;;;5093989;28;20254;-62
2022/03/03 09:45:50;;;;;;;10.63;6.18;;;;;;;;;;5093674;28;20232;-58
2022/03/03 09:48:16;;;;;;;6.30;4.43;;;;;;;;;;5094069;28;20174;-61
2022/03/03 09:50:42;;;;;;;5.88;3.80;;;;;;;;;;5093907;28;20160;-60
2022/03/03 09:53:09;;;;;;;9.38;5.53;;;;;;;;;;5094073;28;20593;-64
2022/03/03 09:55:35;;;;;;;6.30;4.28;;;;;;;;;;5093705;28;20172;-64
2022/03/03 09:58:01;;;;;;;10.38;6.22;;;;;;;;;;5093847;28;20176;-64
2022/03/03 10:00:33;;;;;;;8.57;5.65;;;;;;;;;;5093482;28;20183;-64
2022/03/03 10:03:03;;;;;;;10.02;5.97;;;;;;;;;;5094173;28;20162;-64
2022/03/03 10:05:34;;;;;;;11.93;6.43;;;;;;;;;;5093566;28;20281;-64
2022/03/03 10:08:01;;;;;;;9.88;5.65;;;;;;;;;;5093733;28;20164;-64
2022/03/03 10:10:27;;;;;;;9.38;5.85;;;;;;;;;;5093853;28;20164;-64
2022/03/03 10:12:56;;;;;;;9.02;5.47;;;;;;;;;;5095336;28;20594;-63
2022/03/03 10:15:24;;;;;;;7.68;4.90;;;;;;;;;;5093449;28;20182;-64
2022/03/03 10:17:55;;;;;;;9.13;5.28;;;;;;;;;;5093595;28;20199;-64
2022/03/03 10:20:21;;;;;;;7.53;4.63;;;;;;;;;;5093561;28;20209;-62
2022/03/03 10:22:50;;;;;;;8.57;5.15;;;;;;;;;;5093875;28;20160;-64
2022/03/03 10:25:27;;;;;;;7.38;5.18;;;;;;;;;;5093488;28;20274;-62
2022/03/03 10:27:53;;;;;;;10.20;5.00;;;;;;;;;;5093198;28;20494;-63
2022/03/03 10:30:19;;;;;;;7.32;5.18;;;;;;;;;;5093293;28;20190;-64
2022/03/03 10:32:46;;;;;;;5.95;4.68;;;;;;;;;;5093577;28;20189;-64
2022/03/03 10:35:16;;;;;;;7.20;4.75;;;;;;;;;;5094164;28;20228;-64
2022/03/03 10:37:46;;;;;;;6.90;5.03;;;;;;;;;;5093708;28;20168;-64
2022/03/03 10:40:16;;;;;;;5.75;4.43;;;;;;;;;;5093527;28;20179;-63
2022/03/03 10:42:43;;;;;;;7.55;4.15;;;;;;;;;;5095935;28;20167;-64
2022/03/03 10:45:11;;;;;;;6.40;3.97;;;;;;;;;;5093628;28;20219;-64
2022/03/03 10:47:37;;;;;;;6.60;4.10;;;;;;;;;;5093902;28;20172;-64
2022/03/03 10:50:04;;;;;;;3.78;3.35;;;;;;;;;;5094573;28;20171;-62
2022/03/03 10:52:32;;;;;;;5.60;3.80;;;;;;;;;;5093615;28;20164;-62
2022/03/03 10:55:02;;;;;;;3.85;2.70;;;;;;;;;;5093234;28;20167;-63
2022/03/03 10:57:48;;;;;;;3.95;2.90;;;;;;;;;;5093858;28;20175;-63
2022/03/03 11:00:14;;;;;;;4.70;3.05;;;;;;;;;;5097098;28;20278;-63
2022/03/03 11:02:44;;;;;;;4.65;2.90;;;;;;;;;;5097086;28;20164;-63
2022/03/03 11:05:11;;;;;;;5.53;3.35;;;;;;;;;;5096953;28;20187;-63
2022/03/03 11:07:40;;;;;;;4.10;3.47;;;;;;;;;;5096704;28;20163;-62
2022/03/03 11:10:06;;;;;;;6.03;3.42;;;;;;;;;;5097078;28;20174;-63
2022/03/03 11:12:32;;;;;;;4.53;3.53;;;;;;;;;;5096799;28;20159;-63
2022/03/03 11:14:59;;;;;;;4.35;3.10;;;;;;;;;;5095850;28;20179;-63
2022/03/03 11:17:25;;;;;;;3.00;2.47;;;;;;;;;;5097124;28;20168;-61
2022/03/03 11:19:52;;;;;;;4.50;2.92;;;;;;;;;;5096987;28;20653;-64
2022/03/03 11:22:19;;;;;;;3.38;2.78;;;;;;;;;;5096778;28;20605;-63
2022/03/03 11:24:45;;;;;;;3.80;3.10;;;;;;;;;;5096706;28;20192;-64
2022/03/03 11:27:11;;;;;;;4.85;3.35;;;;;;;;;;5096533;28;20198;-63
2022/03/03 11:29:40;;;;;;;3.83;3.28;;;;;;;;;;5096759;28;20248;-65
2022/03/03 11:32:07;;;;;;;3.58;2.72;;;;;;;;;;5096377;28;20220;-65
2022/03/03 11:34:36;;;;;;;3.67;3.05;;;;;;;;;;5095040;28;20176;-64
2022/03/03 11:37:15;;;;;;;4.00;3.60;;;;;;;;;;5096337;28;20527;-65
2022/03/03 11:39:49;;;;;;;3.67;2.92;;;;;;;;;;5096115;28;20663;-64
2022/03/03 11:42:17;;;;;;;4.78;3.33;;;;;;;;;;5096061;28;20164;-64
2022/03/03 11:44:43;;;;;;;4.38;3.10;;;;;;;;;;5095898;28;20195;-63
2022/03/03 11:47:28;;;;;;;6.85;3.25;;;;;;;;;;5096095;28;20163;-64
2022/03/03 11:49:58;;;;;;;4.68;3.60;;;;;;;;;;5096133;28;20159;-64
2022/03/03 11:52:24;;;;;;;5.03;3.50;;;;;;;;;;5096161;28;20163;-64
2022/03/03 11:54:54;;;;;;;5.22;3.28;;;;;;;;;;5095931;28;20537;-63
2022/03/03 11:57:23;;;;;;;5.03;3.13;;;;;;;;;;5095988;28;20482;-64
2022/03/03 11:59:49;;;;;;;5.45;3.13;;;;;;;;;;5095729;28;20274;-64
2022/03/03 12:02:16;;;;;;;4.70;3.05;;;;;;;;;;5095390;28;20190;-65
2022/03/03 12:04:42;;;;;;;4.93;3.17;;;;;;;;;;5095669;28;20629;-65
2022/03/03 12:07:26;;;;;;;2.47;2.20;;;;;;;;;;5095743;28;20164;-65
2022/03/03 12:09:52;;;;;;;2.78;2.03;;;;;;;;;;5095241;28;20195;-64
2022/03/03 12:12:19;;;;;;;4.20;2.47;;;;;;;;;;5095725;28;20183;-63
2022/03/03 12:14:58;;;;;;;4.18;2.97;;;;;;;;;;5095726;28;20167;-65
2022/03/03 12:17:41;;;;;;;4.53;2.33;;;;;;;;;;5095491;28;20475;-64
2022/03/03 12:20:27;;;;;;;4.65;3.03;;;;;;;;;;5095529;28;20178;-64
2022/03/03 12:23:12;;;;;;;4.93;3.20;;;;;;;;;;5095637;28;20215;-64
2022/03/03 12:25:50;;;;;;;4.68;2.97;;;;;;;;;;5095563;28;20215;-64
2022/03/03 12:28:47;;;;;;;2.97;2.67;;;;;;;;;;5095455;28;20521;-64
2022/03/03 12:31:29;;;;;;;4.32;2.88;;;;;;;;;;5090455;28;20220;-62
2022/03/03 12:33:55;;;;;;;4.03;2.50;;;;;;;;;;5095883;28;20255;-62
2022/03/03 12:36:21;;;;;;;2.97;2.22;;;;;;;;;;5095107;28;20195;-63
2022/03/03 12:38:48;;;;;;;2.53;2.30;;;;;;;;;;5095373;28;20190;-63
2022/03/03 12:41:14;;;;;;;5.55;2.20;;;;;;;;;;5095104;28;20228;-63
2022/03/03 12:43:41;;;;;;;3.42;2.10;;;;;;;;;;5095299;28;20591;-63
2022/03/03 12:46:08;;;;;;;4.88;2.65;;;;;;;;;;5095401;28;20187;-63
2022/03/03 12:48:34;;;;;;;3.97;3.00;;;;;;;;;;5094779;28;20168;-64
2022/03/03 12:51:07;;;;;;;3.22;2.63;;;;;;;;;;5094698;28;20544;-63
2022/03/03 12:53:37;;;;;;;3.97;2.60;;;;;;;;;;5094854;28;20469;-63
2022/03/03 12:56:04;;;;;;;3.35;2.50;;;;;;;;;;5094841;28;20175;-64
2022/03/03 12:58:34;;;;;;;4.22;2.92;;;;;;;;;;5094593;28;20230;-63
2022/03/03 13:01:00;;;;;;;4.55;2.50;;;;;;;;;;5094445;28;20261;-64
2022/03/03 13:03:31;;;;;;;4.07;2.97;;;;;;;;;;5094426;28;20243;-63
2022/03/03 13:05:57;;;;;;;4.30;2.60;;;;;;;;;;5094577;28;20187;-64
2022/03/03 13:08:26;;;;;;;4.97;2.85;;;;;;;;;;5094525;28;20191;-64
2022/03/03 13:10:54;;;;;;;5.75;3.17;;;;;;;;;;5094415;28;20363;-64
2022/03/03 13:13:20;;;;;;;4.55;2.95;;;;;;;;;;5094183;28;20167;-63
2022/03/03 13:15:46;;;;;;;5.20;3.03;;;;;;;;;;5094094;28;20483;-63
2022/03/03 13:18:16;;;;;;;6.18;2.95;;;;;;;;;;5093989;28;20194;-63
2022/03/03 13:20:44;;;;;;;4.38;2.80;;;;;;;;;;5094038;28;20186;-63
2022/03/03 13:23:11;;;;;;;4.80;2.40;;;;;;;;;;5094030;28;20194;-63
2022/03/03 13:25:37;;;;;;;5.05;2.75;;;;;;;;;;5093811;28;20242;-62
2022/03/03 13:28:03;;;;;;;4.55;2.95;;;;;;;;;;5094010;28;20271;-63
2022/03/03 13:30:29;;;;;;;4.28;2.53;;;;;;;;;;5093776;28;20168;-63
2022/03/03 13:32:55;;;;;;;4.20;2.72;;;;;;;;;;5093890;28;20174;-64
2022/03/03 13:35:23;;;;;;;3.75;2.88;;;;;;;;;;5093815;28;20599;-64
2022/03/03 13:37:49;;;;;;;4.82;3.00;;;;;;;;;;5093928;28;20175;-64
2022/03/03 13:40:15;;;;;;;4.22;2.95;;;;;;;;;;5093916;28;20499;-66
2022/03/03 13:42:41;;;;;;;5.28;3.30;;;;;;;;;;5093665;28;20609;-64
2022/03/03 13:45:08;;;;;;;2.72;2.42;;;;;;;;;;5093706;28;20187;-65
2022/03/03 13:47:38;;;;;;;3.40;2.42;;;;;;;;;;5093513;28;20167;-63
2022/03/03 13:50:06;;;;;;;3.75;2.55;;;;;;;;;;5093891;28;20178;-63
2022/03/03 13:52:33;;;;;;;3.13;2.15;;;;;;;;;;5093825;28;20167;-64
2022/03/03 13:55:07;;;;;;;3.17;2.35;;;;;;;;;;5093451;28;20247;-65
2022/03/03 13:57:46;;;;;;;6.95;2.80;;;;;;;;;;5093217;28;20175;-66
2022/03/03 14:00:20;;;;;;;3.33;2.70;;;;;;;;;;5093307;28;20171;-64
2022/03/03 14:02:50;;;;;;;6.65;3.20;;;;;;;;;;5093750;28;20168;-63
2022/03/03 14:05:16;;;;;;;6.22;3.05;;;;;;;;;;5093421;28;20201;-64
2022/03/03 14:07:50;;;;;;;6.03;3.13;;;;;;;;;;5093837;28;20544;-64
2022/03/03 14:10:16;;;;;;;5.35;2.83;;;;;;;;;;5093412;28;20162;-64
2022/03/03 14:12:59;;;;;;;4.57;2.85;;;;;;;;;;5093278;28;20603;-63
2022/03/03 14:15:26;;;;;;;5.78;2.83;;;;;;;;;;5093563;28;20163;-65
2022/03/03 14:17:52;;;;;;;6.75;3.38;;;;;;;;;;5093711;28;20224;-64
2022/03/03 14:20:19;;;;;;;4.75;2.50;;;;;;;;;;5093164;28;20175;-63
2022/03/03 14:22:54;;;;;;;5.60;3.20;;;;;;;;;;5093317;28;20167;-63
2022/03/03 14:25:20;;;;;;;6.57;2.72;;;;;;;;;;5093932;28;20241;-62
2022/03/03 14:27:46;;;;;;;4.35;2.95;;;;;;;;;;5094721;28;20224;-62
2022/03/03 14:30:12;;;;;;;5.57;2.90;;;;;;;;;;5094550;28;20171;-61
2022/03/03 14:32:38;;;;;;;7.07;3.00;;;;;;;;;;5095288;28;20170;-62
2022/03/03 14:35:04;;;;;;;8.18;3.55;;;;;;;;;;5098761;28;20163;-62